Time;durP1;ratioP1;P1;durP2;ratioP2;P2;SDS_P1;SDS_P2;PMS_P1;PMS_P2;Temp;Humidity;BMP_temperature;BMP_pressure;BME280_temperature;BME280_humidity;BME280_pressure;Samples;Min_cycle;Max_cycle;Signal;HPM_P1;HPM_P2
2021/12/17 00:00:19;;;;;;;;;60.00;48.00;;;;;7.72;100.00;103390.06;5018624;28;46566;-83
2021/12/17 00:03:10;;;;;;;;;62.67;49.67;;;;;7.69;100.00;103390.09;5034569;28;45392;-82
2021/12/17 00:05:52;;;;;;;;;60.00;49.00;;;;;7.67;100.00;103385.72;5035254;28;45226;-82
2021/12/17 00:08:22;;;;;;;;;60.33;49.33;;;;;7.61;100.00;103384.03;5018732;28;45427;-82
2021/12/17 00:10:49;;;;;;;;;52.33;40.33;;;;;7.61;100.00;103388.44;5035630;28;45218;-82
2021/12/17 00:13:16;;;;;;;;;55.00;43.67;;;;;7.59;100.00;103383.19;5035803;28;45389;-80
2021/12/17 00:15:43;;;;;;;;;60.67;48.00;;;;;7.59;100.00;103374.34;5036278;28;44909;-82
2021/12/17 00:18:19;;;;;;;;;62.00;47.67;;;;;7.58;100.00;103385.81;5039293;28;44823;-82
2021/12/17 00:53:25;;;;;;;;;58.33;45.67;;;;;7.49;100.00;103363.00;4996908;28;45176;-81
2021/12/17 00:55:51;;;;;;;;;52.00;43.00;;;;;7.48;100.00;103364.78;4997227;28;45353;-80
2021/12/17 00:58:17;;;;;;;;;59.33;46.00;;;;;7.46;100.00;103360.41;5006228;28;45365;-81
2021/12/17 01:00:43;;;;;;;;;60.00;49.67;;;;;7.46;100.00;103370.97;5016592;28;45286;-81
2021/12/17 01:03:09;;;;;;;;;67.33;48.67;;;;;7.44;100.00;103360.41;5017099;28;45165;-81
2021/12/17 01:05:34;;;;;;;;;47.67;40.00;;;;;7.44;100.00;103362.19;5022760;28;44651;-81
2021/12/17 01:08:03;;;;;;;;;57.67;47.33;;;;;7.44;100.00;103365.69;5022154;28;44706;-81
2021/12/17 01:10:39;;;;;;;;;58.00;46.00;;;;;7.43;100.00;103368.38;5016467;28;44734;-81
2021/12/17 01:13:07;;;;;;;;;67.67;51.33;;;;;7.41;100.00;103368.41;5016424;28;45087;-80
2021/12/17 01:15:34;;;;;;;;;58.33;39.67;;;;;7.41;100.00;103360.47;5016291;28;44720;-80
2021/12/17 01:18:06;;;;;;;;;60.67;46.00;;;;;7.42;100.00;103364.84;5016306;28;44747;-81
2021/12/17 01:36:11;;;;;;;;;57.67;46.33;;;;;7.32;100.00;103360.56;5016555;28;45470;-81
2021/12/17 01:44:18;;;;;;;;;57.33;46.00;;;;;7.26;100.00;103359.75;5016760;28;45074;-80
2021/12/17 01:46:46;;;;;;;;;58.67;44.00;;;;;7.22;100.00;103361.56;5022295;28;44761;-81
2021/12/17 01:49:26;;;;;;;;;57.33;47.00;;;;;7.20;100.00;103358.94;5020635;28;45423;-81
2021/12/17 02:00:09;;;;;;;;;62.33;48.00;;;;;7.11;100.00;103359.03;5016915;28;45200;-81
2021/12/17 02:02:42;;;;;;;;;64.33;49.00;;;;;7.13;100.00;103356.38;5015287;28;45254;-79
2021/12/17 02:05:08;;;;;;;;;58.00;45.67;;;;;7.11;100.00;103356.38;5016436;28;45195;-81
2021/12/17 02:07:34;;;;;;;;;61.67;47.67;;;;;7.09;100.00;103358.16;5017461;28;44840;-81
2021/12/17 02:28:48;;;;;;;;;63.67;47.33;;;;;7.03;100.00;103350.28;5030647;28;45260;-80
2021/12/17 02:31:32;;;;;;;;;55.00;45.33;;;;;7.03;100.00;103365.28;5020921;28;44679;-81
2021/12/17 02:34:14;;;;;;;;;60.33;46.67;;;;;7.01;100.00;103359.13;5016668;28;44696;-82
2021/12/17 02:36:42;;;;;;;;;60.67;46.33;;;;;6.99;100.00;103356.50;5015511;28;45393;-82
2021/12/17 02:39:44;;;;;;;;;56.67;44.33;;;;;6.98;100.00;103356.53;5016310;28;45455;-80
2021/12/17 02:47:27;;;;;;;;;53.00;42.33;;;;;6.88;100.00;103350.44;5011605;28;44987;-81
2021/12/17 02:49:52;;;;;;;;;61.67;43.67;;;;;6.87;100.00;103349.56;5014080;28;44719;-79
2021/12/17 02:52:19;;;;;;;;;61.00;47.33;;;;;6.86;100.00;103344.28;5015312;28;45239;-81
2021/12/17 02:54:46;;;;;;;;;49.67;37.33;;;;;6.84;100.00;103338.16;5015776;28;45368;-82
2021/12/17 02:57:12;;;;;;;;;56.67;46.33;;;;;6.82;100.00;103343.47;5016375;28;45220;-81
2021/12/17 02:59:38;;;;;;;;;55.00;43.00;;;;;6.81;100.00;103346.09;5014717;28;44856;-81
2021/12/17 03:02:09;;;;;;;;;55.00;45.00;;;;;6.79;100.00;103343.47;5015370;28;45443;-83
2021/12/17 03:04:39;;;;;;;;;54.67;44.00;;;;;6.77;100.00;103337.34;5016467;28;44913;-81
2021/12/17 03:07:05;;;;;;;;;60.33;49.33;;;;;6.78;100.00;103335.56;5019512;28;45337;-81
2021/12/17 03:09:46;;;;;;;;;52.67;44.00;;;;;6.75;100.00;103331.19;5026331;28;45205;-81
2021/12/17 03:12:18;;;;;;;;;50.33;41.33;;;;;6.75;100.00;103335.59;5020053;28;44870;-82
2021/12/17 03:14:52;;;;;;;;;52.00;41.67;;;;;6.73;100.00;103330.34;5017685;28;44987;-81
2021/12/17 03:17:45;;;;;;;;;55.67;45.67;;;;;6.76;100.00;103334.69;5019537;28;45394;-81
2021/12/17 03:25:31;;;;;;;;;55.00;46.33;;;;;6.75;100.00;103328.53;5019969;28;45161;-83
2021/12/17 03:27:56;;;;;;;;;54.00;43.67;;;;;6.74;100.00;103325.91;5021661;28;45206;-83
2021/12/17 03:30:27;;;;;;;;;53.67;40.67;;;;;6.75;100.00;103328.53;5025008;28;44754;-80
2021/12/17 03:32:52;;;;;;;;;59.00;43.33;;;;;6.76;100.00;103337.34;5025203;28;45272;-82
2021/12/17 03:35:17;;;;;;;;;52.33;43.33;;;;;6.76;100.00;103327.66;5018755;28;44874;-81
2021/12/17 03:37:43;;;;;;;;;51.67;41.67;;;;;6.73;100.00;103334.75;5033870;28;45345;-81
2021/12/17 03:40:13;;;;;;;;;57.00;46.67;;;;;6.73;100.00;103334.75;5018505;28;45398;-81
2021/12/17 03:42:45;;;;;;;;;56.67;44.33;;;;;6.70;100.00;103339.16;5017929;28;44742;-81
2021/12/17 03:45:10;;;;;;;;;54.00;43.33;;;;;6.71;100.00;103337.38;5019409;28;45323;-81
2021/12/17 03:47:35;;;;;;;;;47.33;39.33;;;;;6.71;100.00;103334.72;5022751;28;45056;-81
2021/12/17 03:50:01;;;;;;;;;59.00;48.33;;;;;6.72;100.00;103340.88;5024719;28;44655;-81
2021/12/17 03:52:27;;;;;;;;;56.33;46.33;;;;;6.73;100.00;103334.75;5021812;28;45639;-80
2021/12/17 03:54:52;;;;;;;;;56.67;45.00;;;;;6.75;100.00;103335.59;5018458;28;45351;-80
2021/12/17 03:57:19;;;;;;;;;56.00;45.00;;;;;6.76;100.00;103338.22;5016851;28;46954;-81
2021/12/17 03:59:44;;;;;;;;;55.33;45.33;;;;;6.80;100.00;103332.00;5018226;28;45198;-80
2021/12/17 04:02:09;;;;;;;;;60.33;48.00;;;;;6.86;100.00;103346.94;5018079;28;45299;-81
2021/12/17 04:04:35;;;;;;;;;61.67;48.33;;;;;6.90;100.00;103340.72;5016014;28;45344;-81
2021/12/17 04:07:00;;;;;;;;;57.33;46.33;;;;;6.96;100.00;103348.59;5018960;28;45412;-81
2021/12/17 04:09:29;;;;;;;;;53.67;41.67;;;;;7.01;100.00;103343.25;5022966;28;44892;-81
2021/12/17 04:11:54;;;;;;;;;66.33;50.33;;;;;7.04;100.00;103341.47;5019259;28;45532;-80
2021/12/17 04:14:31;;;;;;;;;56.33;44.67;;;;;7.09;100.00;103344.06;5020234;28;44870;-81
2021/12/17 04:17:02;;;;;;;;;54.00;44.00;;;;;7.12;100.00;103336.13;5019402;28;45410;-80
2021/12/17 04:19:28;;;;;;;;;55.00;44.33;;;;;7.17;100.00;103339.59;5020969;28;45431;-81
2021/12/17 04:21:53;;;;;;;;;52.67;43.00;;;;;7.19;100.00;103328.09;5020301;28;45422;-81
2021/12/17 04:24:19;;;;;;;;;53.67;43.67;;;;;7.23;100.00;103331.56;5020886;28;45541;-80
2021/12/17 04:26:45;;;;;;;;;45.33;38.00;;;;;7.27;100.00;103329.78;5035782;28;45531;-82
2021/12/17 04:29:12;;;;;;;;;51.33;41.00;;;;;7.30;100.00;103329.72;5019071;28;45173;-82
2021/12/17 04:31:37;;;;;;;;;50.67;41.67;;;;;7.33;100.00;103338.50;5028846;28;44901;-81
2021/12/17 04:34:02;;;;;;;;;54.33;42.00;;;;;7.36;100.00;103327.03;5028093;28;45198;-82
2021/12/17 04:36:31;;;;;;;;;52.67;43.33;;;;;7.40;100.00;103323.47;5023656;28;45226;-82
2021/12/17 04:38:59;;;;;;;;;51.67;40.00;;;;;7.44;100.00;103319.84;5018067;28;45419;-81
2021/12/17 04:44:05;;;;;;;;;49.67;41.00;;;;;7.48;100.00;103324.22;5016544;28;45578;-81
2021/12/17 04:59:45;;;;;;;;;54.67;43.00;;;;;7.61;100.00;103323.19;5016692;28;45526;-81
2021/12/17 05:02:10;;;;;;;;;45.00;35.33;;;;;7.61;100.00;103320.53;5016816;28;44844;-80
2021/12/17 05:04:37;;;;;;;;;51.00;40.33;;;;;7.63;100.00;103321.38;5018796;28;45380;-81
2021/12/17 05:07:03;;;;;;;;;46.00;38.33;;;;;7.65;100.00;103311.66;5017575;28;45305;-81
2021/12/17 05:09:44;;;;;;;;;51.33;41.33;;;;;7.69;100.00;103329.25;5018728;28;45398;-81
2021/12/17 05:20:33;;;;;;;;;51.67;38.67;;;;;7.80;100.00;103315.00;5018236;28;44798;-82
2021/12/17 05:23:00;;;;;;;;;43.33;38.00;;;;;7.80;100.00;103320.28;5018441;28;44743;-83
2021/12/17 05:25:27;;;;;;;;;31.00;30.33;;;;;7.77;100.00;103322.97;5016470;28;45428;-82
2021/12/17 05:27:55;;;;;;;;;41.67;36.00;;;;;7.78;100.00;103320.28;5016800;28;45538;-82
2021/12/17 05:30:21;;;;;;;;;43.33;36.33;;;;;7.81;100.00;103322.03;5016018;28;44742;-81
2021/12/17 05:32:47;;;;;;;;;48.67;38.00;;;;;7.82;100.00;103315.84;5016235;28;45474;-81
2021/12/17 05:35:12;;;;;;;;;43.33;36.33;;;;;7.85;100.00;103321.09;5021899;28;45170;-82
2021/12/17 05:37:37;;;;;;;;;51.67;35.33;;;;;7.87;100.00;103329.88;5023944;28;45397;-83
2021/12/17 05:40:03;;;;;;;;;51.67;40.67;;;;;7.85;100.00;103318.47;5022268;28;45213;-82
2021/12/17 05:42:28;;;;;;;;;56.00;45.33;;;;;7.86;100.00;103320.22;5016807;28;44944;-81
2021/12/17 05:44:58;;;;;;;;;44.00;34.00;;;;;7.86;100.00;103315.78;5016751;28;45359;-81
2021/12/17 05:47:24;;;;;;;;;51.00;41.33;;;;;7.90;100.00;103308.69;5016488;28;45438;-81
2021/12/17 05:49:49;;;;;;;;;47.67;38.33;;;;;7.88;100.00;103310.47;5017553;28;44844;-81
2021/12/17 05:52:15;;;;;;;;;50.67;39.33;;;;;7.88;100.00;103316.66;5017996;28;45375;-82
2021/12/17 05:54:40;;;;;;;;;47.67;38.00;;;;;7.89;100.00;103312.22;5020897;28;45563;-82
2021/12/17 05:57:06;;;;;;;;;47.67;39.67;;;;;7.92;100.00;103304.22;5018472;28;45423;-82
2021/12/17 05:59:34;;;;;;;;;49.67;36.00;;;;;7.94;100.00;103310.41;5016746;28;44720;-82
2021/12/17 06:02:01;;;;;;;;;45.00;37.33;;;;;7.98;100.00;103314.75;5019287;28;45424;-80
2021/12/17 06:04:26;;;;;;;;;45.33;39.00;;;;;8.01;100.00;103314.69;5020285;28;45417;-82
2021/12/17 06:06:52;;;;;;;;;39.67;34.67;;;;;8.01;100.00;103316.47;5018984;28;45243;-82
2021/12/17 06:09:17;;;;;;;;;40.33;33.00;;;;;8.03;100.00;103317.34;5017619;28;44780;-83
2021/12/17 06:11:43;;;;;;;;;41.00;34.00;;;;;8.04;100.00;103311.13;5017706;28;45246;-82
2021/12/17 06:14:08;;;;;;;;;46.00;37.67;;;;;8.01;100.00;103305.88;5020075;28;44830;-82
2021/12/17 06:16:34;;;;;;;;;46.33;38.00;;;;;8.03;100.00;103317.34;5018045;28;45355;-82
2021/12/17 06:19:03;;;;;;;;;46.67;37.00;;;;;8.01;100.00;103309.38;5018051;28;45320;-81
2021/12/17 06:21:28;;;;;;;;;47.00;36.00;;;;;8.02;100.00;103313.78;5016463;28;44849;-82
2021/12/17 06:23:54;;;;;;;;;40.00;35.67;;;;;8.04;100.00;103316.44;5017529;28;44824;-82
2021/12/17 06:26:19;;;;;;;;;37.67;33.33;;;;;8.05;100.00;103311.09;5019162;28;45032;-84
2021/12/17 06:28:49;;;;;;;;;44.00;35.67;;;;;8.05;100.00;103307.59;5024182;28;44731;-82
2021/12/17 06:31:15;;;;;;;;;43.67;34.00;;;;;8.04;100.00;103304.06;5021748;28;45339;-85
2021/12/17 06:33:40;;;;;;;;;44.67;35.00;;;;;8.06;100.00;103317.25;5025751;28;44852;-82
2021/12/17 06:36:06;;;;;;;;;29.67;26.33;;;;;8.05;100.00;103319.03;5020484;28;46689;-82
2021/12/17 06:38:31;;;;;;;;;32.00;24.67;;;;;8.06;100.00;103320.78;5023757;28;45277;-82
2021/12/17 06:40:58;;;;;;;;;44.67;35.00;;;;;8.07;100.00;103324.31;5022766;28;45210;-81
2021/12/17 06:43:30;;;;;;;;;35.33;29.00;;;;;8.04;100.00;103319.06;5021733;28;44825;-83
2021/12/17 06:46:04;;;;;;;;;41.67;35.00;;;;;8.08;100.00;103328.72;5023098;28;45486;-83
2021/12/17 06:48:32;;;;;;;;;43.00;34.50;;;;;8.05;100.00;103329.63;5020445;28;45351;-82
2021/12/17 07:17:07;;;;;;;;;36.00;32.33;;;;;8.13;100.00;103322.47;5019275;28;45206;-83
2021/12/17 07:40:46;;;;;;;;;34.67;27.33;;;;;8.39;100.00;103343.25;5019980;28;45434;-83
2021/12/17 07:43:13;;;;;;;;;35.00;31.67;;;;;8.42;100.00;103340.56;5025849;28;45276;-82
2021/12/17 07:45:39;;;;;;;;;34.33;32.00;;;;;8.43;100.00;103341.44;5027007;28;45320;-82
2021/12/17 07:48:05;;;;;;;;;28.33;26.33;;;;;8.46;100.00;103342.28;5021159;28;44972;-82
2021/12/17 07:50:31;;;;;;;;;37.00;32.67;;;;;8.46;100.00;103347.56;5021528;28;44875;-84
2021/12/17 07:52:56;;;;;;;;;38.67;32.00;;;;;8.52;100.00;103348.38;5020401;28;44725;-83
2021/12/17 07:55:22;;;;;;;;;31.33;29.33;;;;;8.56;100.00;103342.09;5021948;28;45250;-83
2021/12/17 07:57:47;;;;;;;;;39.00;33.00;;;;;8.55;100.00;103343.88;5021310;28;45245;-83
2021/12/17 08:00:13;;;;;;;;;42.00;34.67;;;;;8.56;100.00;103347.41;5025423;28;45300;-83
2021/12/17 08:02:38;;;;;;;;;30.67;29.67;;;;;8.59;100.00;103340.28;5020332;28;44704;-83
2021/12/17 08:05:04;;;;;;;;;35.67;27.33;;;;;8.63;100.00;103339.34;5016796;28;44920;-82
2021/12/17 08:07:29;;;;;;;;;36.00;32.00;;;;;8.65;100.00;103339.31;5021600;28;45033;-83
2021/12/17 08:09:57;;;;;;;;;40.67;33.33;;;;;8.67;100.00;103338.38;5019794;28;45253;-82
2021/12/17 08:12:23;;;;;;;;;28.67;26.00;;;;;8.67;100.00;103329.56;5019178;28;44954;-82
2021/12/17 08:14:48;;;;;;;;;34.67;32.00;;;;;8.69;100.00;103333.91;5018699;28;44859;-83
2021/12/17 08:25:40;;;;;;;;;41.00;33.67;;;;;8.81;100.00;103353.19;5019889;28;45526;-84
2021/12/17 08:28:09;;;;;;;;;28.75;20.00;;;;;8.83;100.00;103338.13;5018524;28;45061;-82
2021/12/17 08:30:40;;;;;;;;;44.33;35.67;;;;;8.83;100.00;103346.06;5018582;28;44805;-82
2021/12/17 08:33:06;;;;;;;;;43.67;29.67;;;;;8.85;100.00;103357.50;5018776;28;45458;-83
2021/12/17 08:35:33;;;;;;;;;34.67;31.67;;;;;8.87;100.00;103355.72;5019589;28;44751;-84
2021/12/17 08:37:59;;;;;;;;;36.00;33.67;;;;;8.86;100.00;103356.63;5020411;28;46648;-83
2021/12/17 08:40:26;;;;;;;;;45.67;34.00;;;;;8.90;100.00;103356.56;5025390;28;44746;-84
2021/12/17 08:42:53;;;;;;;;;34.75;27.25;;;;;8.92;100.00;103349.44;5026371;28;45448;-85
2021/12/17 08:45:19;;;;;;;;;25.00;25.00;;;;;8.94;100.00;103346.75;5025067;28;45495;-86
2021/12/17 08:47:47;;;;;;;;;33.00;28.00;;;;;8.94;100.00;103355.56;5026416;28;45277;-85
2021/12/17 08:50:13;;;;;;;;;31.33;31.00;;;;;8.97;100.00;103347.56;5032721;28;44756;-84
2021/12/17 08:52:40;;;;;;;;;39.25;33.75;;;;;9.00;100.00;103346.66;5046298;28;45426;-86
2021/12/17 08:55:07;;;;;;;;;39.50;31.25;;;;;9.02;100.00;103352.78;5025699;28;45109;-87
2021/12/17 08:57:32;;;;;;;;;34.00;31.50;;;;;9.05;100.00;103357.19;5023170;28;45190;-85
2021/12/17 09:00:04;;;;;;;;;33.67;32.33;;;;;9.09;100.00;103351.78;5019589;28;44711;-85
2021/12/17 09:02:29;;;;;;;;;26.33;25.67;;;;;9.10;100.00;103347.34;5020198;28;44706;-88
2021/12/17 09:04:55;;;;;;;;;41.67;34.00;;;;;9.15;100.00;103351.66;5017729;28;45679;-84
2021/12/17 09:07:20;;;;;;;;;38.67;34.33;;;;;9.14;100.00;103352.56;5020143;28;45088;-86
2021/12/17 09:09:47;;;;;;;;;40.00;31.50;;;;;9.12;100.00;103348.19;5024257;28;45502;-87
2021/12/17 09:12:13;;;;;;;;;33.00;22.25;;;;;9.11;100.00;103355.28;5017051;28;44871;-86
2021/12/17 09:14:38;;;;;;;;;35.00;32.00;;;;;9.11;100.00;103357.94;5017981;28;44991;-86
2021/12/17 09:17:04;;;;;;;;;25.00;25.00;;;;;9.09;100.00;103367.69;5019817;28;45563;-86
2021/12/17 09:19:29;;;;;;;;;38.75;33.75;;;;;9.10;100.00;103371.22;5025907;28;45296;-86
2021/12/17 09:21:55;;;;;;;;;42.67;34.00;;;;;9.10;100.00;103371.22;5025138;28;45454;-86
2021/12/17 09:24:20;;;;;;;;;45.00;34.00;;;;;9.14;100.00;103373.78;5024939;28;44868;-86
2021/12/17 09:26:45;;;;;;;;;42.67;35.00;;;;;9.18;100.00;103367.50;5020977;28;45263;-84
2021/12/17 09:29:11;;;;;;;;;37.25;30.50;;;;;9.18;100.00;103362.19;5019977;28;45331;-84
2021/12/17 09:31:36;;;;;;;;;36.75;32.75;;;;;9.17;100.00;103371.06;5020846;28;45476;-84
2021/12/17 09:34:02;;;;;;;;;36.75;29.25;;;;;9.20;100.00;103380.75;5022892;28;44910;-86
2021/12/17 09:36:28;;;;;;;;;43.50;31.75;;;;;9.19;100.00;103373.72;5022417;28;45663;-85
2021/12/17 09:38:53;;;;;;;;;34.75;31.75;;;;;9.19;100.00;103379.88;5037162;28;44802;-86
2021/12/17 09:41:23;;;;;;;;;44.67;35.67;;;;;9.19;100.00;103389.63;5021483;28;44790;-85
2021/12/17 09:43:49;;;;;;;;;39.67;31.33;;;;;9.23;100.00;103385.97;5019228;28;45495;-87
2021/12/17 09:46:16;;;;;;;;;32.50;31.00;;;;;9.28;100.00;103389.41;5019846;28;46696;-85
2021/12/17 09:48:46;;;;;;;;;29.00;26.67;;;;;9.28;100.00;103384.13;5022201;28;45365;-85
2021/12/17 09:51:14;;;;;;;;;39.67;34.33;;;;;9.26;100.00;103386.81;5024391;28;45434;-86
2021/12/17 09:53:40;;;;;;;;;36.75;30.00;;;;;9.30;100.00;103389.41;5020129;28;44817;-85
2021/12/17 09:56:05;;;;;;;;;42.00;34.00;;;;;9.30;100.00;103390.28;5016838;28;45165;-84
2021/12/17 09:58:32;;;;;;;;;47.67;37.67;;;;;9.34;100.00;103401.72;5018293;28;45541;-82
2021/12/17 10:00:57;;;;;;;;;28.67;27.67;;;;;9.35;100.00;103396.38;5020832;28;45304;-83
2021/12/17 10:03:23;;;;;;;;;40.33;33.00;;;;;9.36;100.00;103399.91;5020388;28;45342;-83
2021/12/17 10:05:48;;;;;;;;;44.67;38.33;;;;;9.34;100.00;103397.28;5020625;28;45234;-81
2021/12/17 10:08:19;;;;;;;;;31.33;25.00;;;;;9.38;100.00;103398.06;5017494;28;45317;-83
2021/12/17 10:10:45;;;;;;;;;41.00;33.67;;;;;9.35;100.00;103388.41;5015731;28;45239;-83
2021/12/17 10:13:23;;;;;;;;;44.00;35.00;;;;;9.34;100.00;103388.44;5015522;28;45456;-85
2021/12/17 10:15:52;;;;;;;;;50.33;41.33;;;;;9.34;100.00;103385.81;5008935;28;46629;-84
2021/12/17 10:18:27;;;;;;;;;37.33;32.00;;;;;9.36;100.00;103383.97;5020294;28;45364;-83
2021/12/17 10:21:00;;;;;;;;;31.00;27.67;;;;;9.38;100.00;103364.50;5019586;28;45376;-81
2021/12/17 10:23:29;;;;;;;;;38.00;35.00;;;;;9.36;100.00;103376.88;5018506;28;45361;-82
2021/12/17 10:25:54;;;;;;;;;59.00;41.67;;;;;9.36;100.00;103368.06;5017940;28;45027;-82
2021/12/17 10:28:21;;;;;;;;;44.33;33.33;;;;;9.42;100.00;103366.16;5018007;28;45194;-82
2021/12/17 10:30:49;;;;;;;;;31.75;28.25;;;;;9.45;100.00;103357.28;5018603;28;45376;-83
2021/12/17 10:33:18;;;;;;;;;41.00;35.33;;;;;9.43;100.00;103367.06;5018464;28;45439;-81
2021/12/17 10:35:48;;;;;;;;;42.67;36.67;;;;;9.45;100.00;103358.13;5018582;28;45634;-82
2021/12/17 10:38:20;;;;;;;;;47.00;36.50;;;;;9.48;100.00;103357.22;5018803;28;44771;-81
2021/12/17 10:40:59;;;;;;;;;31.00;30.00;;;;;9.46;100.00;103346.63;5012564;28;45320;-83
2021/12/17 10:46:01;;;;;;;;;44.00;37.33;;;;;9.47;100.00;103344.84;5021128;28;45397;-82
2021/12/17 10:48:36;;;;;;;;;39.50;31.75;;;;;9.52;100.00;103345.63;5020841;28;44788;-82
2021/12/17 10:51:28;;;;;;;;;47.33;35.33;;;;;9.49;100.00;103335.09;5019876;28;45415;-83
2021/12/17 10:53:57;;;;;;;;;41.67;36.33;;;;;9.48;100.00;103334.22;5018233;28;45344;-83
2021/12/17 10:56:26;;;;;;;;;57.00;41.33;;;;;9.47;100.00;103326.25;5023421;28;45420;-84
2021/12/17 10:58:56;;;;;;;;;41.33;33.00;;;;;9.45;100.00;103321.00;5021570;28;45336;-84
2021/12/17 11:01:31;;;;;;;;;33.67;31.00;;;;;9.50;100.00;103315.59;5023736;28;45372;-83
2021/12/17 11:04:08;;;;;;;;;47.33;36.33;;;;;9.53;100.00;103323.50;5017626;28;45353;-84
2021/12/17 11:07:00;;;;;;;;;44.33;37.33;;;;;9.56;100.00;103320.75;5023383;28;44995;-85
2021/12/17 11:09:47;;;;;;;;;52.33;41.67;;;;;9.57;100.00;103319.84;5020951;28;45177;-84
2021/12/17 11:12:34;;;;;;;;;50.00;40.00;;;;;9.66;100.00;103313.47;5023148;28;44857;-84
2021/12/17 11:15:08;;;;;;;;;44.00;36.00;;;;;9.72;100.00;103314.25;5017695;28;45003;-82
2021/12/17 11:17:34;;;;;;;;;48.33;38.00;;;;;9.79;100.00;103312.31;5039016;28;45334;-82
2021/12/17 11:20:05;;;;;;;;;45.33;34.33;;;;;9.85;100.00;103300.66;5033520;28;45403;-81
2021/12/17 11:22:31;;;;;;;;;51.00;37.67;;;;;9.87;100.00;103285.59;5031350;28;44765;-84
2021/12/17 11:25:00;;;;;;;;;46.67;36.33;;;;;9.86;100.00;103274.06;5022292;28;44845;-82
2021/12/17 11:27:26;;;;;;;;;44.00;35.00;;;;;9.83;100.00;103282.13;5023820;28;45251;-84
2021/12/17 11:29:52;;;;;;;;;46.33;39.00;;;;;9.87;100.00;103272.31;5029711;28;45240;-84
2021/12/17 11:32:19;;;;;;;;;40.00;34.67;;;;;9.90;100.00;103275.75;5027811;28;44668;-84
2021/12/17 11:34:44;;;;;;;;;48.75;37.00;;;;;9.94;100.00;103265.94;5018885;28;45211;-84
2021/12/17 11:37:11;;;;;;;;;48.33;37.00;;;;;10.00;100.00;103266.66;5034947;28;47114;-84
2021/12/17 11:39:43;;;;;;;;;45.33;38.33;;;;;10.06;100.00;103268.31;5019369;28;44781;-83
2021/12/17 11:42:34;;;;;;;;;44.33;35.00;;;;;10.05;100.00;103264.78;5018498;28;45264;-83
2021/12/17 11:47:47;;;;;;;;;49.33;34.00;;;;;10.09;100.00;103265.56;5017065;28;45046;-83
2021/12/17 11:50:16;;;;;;;;;36.75;31.25;;;;;10.09;100.00;103254.09;5017838;28;44722;-83
2021/12/17 11:52:48;;;;;;;;;40.00;35.75;;;;;10.11;100.00;103253.16;5018232;28;44797;-84
2021/12/17 11:55:36;;;;;;;;;48.33;40.00;;;;;10.08;100.00;103249.69;5020964;28;44992;-84
2021/12/17 11:58:07;;;;;;;;;38.50;33.00;;;;;10.09;100.00;103249.63;5013983;28;45064;-83
2021/12/17 12:00:41;;;;;;;;;41.25;32.50;;;;;10.02;100.00;103248.94;5018403;28;45434;-84
2021/12/17 12:03:16;;;;;;;;;39.33;31.67;;;;;10.08;100.00;103250.56;5019305;28;45335;-83
2021/12/17 12:05:44;;;;;;;;;43.67;34.00;;;;;10.15;100.00;103248.63;5020287;28;44821;-84
2021/12/17 12:08:34;;;;;;;;;52.33;37.00;;;;;10.20;100.00;103252.03;5019745;28;47930;-84
2021/12/17 12:11:07;;;;;;;;;46.00;34.33;;;;;10.26;100.00;103241.31;5018895;28;45434;-84
2021/12/17 12:13:34;;;;;;;;;41.67;34.00;;;;;10.25;100.00;103229.81;5018041;28;45331;-84
2021/12/17 12:16:06;;;;;;;;;44.33;36.00;;;;;10.30;100.00;103229.69;5016678;28;44837;-83
2021/12/17 12:18:46;;;;;;;;;40.00;33.67;;;;;10.31;100.00;103231.44;5016927;28;45149;-82
2021/12/17 12:21:16;;;;;;;;;35.00;30.75;;;;;10.24;100.00;103220.06;5012759;28;44795;-84
2021/12/17 12:23:44;;;;;;;;;34.75;32.25;;;;;10.25;100.00;103224.50;5018690;28;45170;-84
2021/12/17 12:26:14;;;;;;;;;28.75;27.00;;;;;10.29;100.00;103223.47;5017197;28;44763;-84
2021/12/17 12:28:42;;;;;;;;;35.25;33.00;;;;;10.26;100.00;103212.06;5016694;28;45353;-82
2021/12/17 12:31:08;;;;;;;;;33.50;29.25;;;;;10.28;100.00;103213.75;5010040;28;44829;-83
2021/12/17 12:33:33;;;;;;;;;35.75;32.75;;;;;10.31;100.00;103212.81;5017889;28;44849;-84
2021/12/17 12:35:59;;;;;;;;;34.00;29.75;;;;;10.37;100.00;103215.31;5015557;28;45505;-83
2021/12/17 12:38:32;;;;;;;;;36.50;33.00;;;;;10.35;100.00;103211.84;5016858;28;45036;-83
2021/12/17 12:41:00;;;;;;;;;21.75;21.75;;;;;10.37;100.00;103204.69;5016333;28;45557;-83
2021/12/17 12:43:32;;;;;;;;;42.00;31.75;;;;;10.40;100.00;103207.28;5017590;28;45396;-83
2021/12/17 12:45:58;;;;;;;;;36.75;32.75;;;;;10.44;100.00;103187.69;5019471;28;44995;-82
2021/12/17 12:48:39;;;;;;;;;33.00;30.75;;;;;10.48;100.00;103193.75;5019818;28;45349;-85
2021/12/17 12:51:15;;;;;;;;;34.00;30.75;;;;;10.51;100.00;103191.03;5019466;28;45333;-83
2021/12/17 12:54:01;;;;;;;;;34.75;30.75;;;;;10.53;100.00;103183.88;5018903;28;45525;-84
2021/12/17 12:56:27;;;;;;;;;37.00;32.25;;;;;10.57;100.00;103182.88;5013292;28;44849;-83
2021/12/17 12:58:53;;;;;;;;;41.25;34.50;;;;;10.62;100.00;103185.41;5020742;28;45581;-84
2021/12/17 13:01:20;;;;;;;;;49.67;40.67;;;;;10.60;100.00;103180.16;5021018;28;45744;-84
2021/12/17 13:03:48;;;;;;;;;32.50;28.50;;;;;10.53;100.00;103183.88;5018813;28;45033;-84
2021/12/17 13:06:19;;;;;;;;;29.25;29.00;;;;;10.48;100.00;103177.81;5029823;28;45327;-84
2021/12/17 13:08:55;;;;;;;;;38.75;31.00;;;;;10.37;100.00;103191.41;5016278;28;45145;-82
2021/12/17 13:11:21;;;;;;;;;37.75;33.50;;;;;10.33;100.00;103183.56;5016842;28;44905;-84
2021/12/17 13:13:53;;;;;;;;;31.00;26.00;;;;;10.26;100.00;103186.38;5016526;28;45277;-84
2021/12/17 13:16:43;;;;;;;;;26.25;24.25;;;;;10.33;100.00;103176.44;5009400;28;45430;-84
2021/12/17 13:24:30;;;;;;;;;38.00;30.50;;;;;10.35;100.00;103182.63;5022231;28;45341;-84
2021/12/17 13:26:59;;;;;;;;;35.75;29.75;;;;;10.42;100.00;103178.88;5016376;28;45274;-83
2021/12/17 13:29:30;;;;;;;;;31.50;30.50;;;;;10.51;100.00;103170.66;5015063;28;45108;-83
2021/12/17 13:32:00;;;;;;;;;21.00;17.75;;;;;10.58;100.00;103165.16;5018803;28;44754;-84
2021/12/17 13:34:34;;;;;;;;;41.67;36.00;;;;;10.53;100.00;103171.47;5019341;28;45046;-83
2021/12/17 13:37:10;;;;;;;;;22.75;21.00;;;;;10.40;100.00;103183.38;5013737;28;45464;-84
2021/12/17 13:39:46;;;;;;;;;37.00;31.00;;;;;10.18;100.00;103179.47;5013703;28;45108;-82
2021/12/17 13:42:16;;;;;;;;;25.50;21.25;;;;;10.05;100.00;103184.22;4996245;28;45353;-83
2021/12/17 13:44:49;;;;;;;;;25.75;21.75;;;;;9.93;100.00;103185.41;5013207;28;45476;-84
2021/12/17 13:47:16;;;;;;;;;23.50;23.50;;;;;9.93;100.00;103190.72;5012981;28;45627;-83
2021/12/17 13:49:45;;;;;;;;;28.75;25.75;;;;;9.91;100.00;103181.94;4997359;28;46615;-85
2021/12/17 13:52:11;;;;;;;;;25.75;23.50;;;;;9.88;100.00;103182.00;5013592;28;44857;-84
2021/12/17 13:54:37;;;;;;;;;28.25;25.75;;;;;9.82;100.00;103176.84;5015135;28;45464;-83
2021/12/17 13:57:05;;;;;;;;;31.50;28.25;;;;;9.84;100.00;103172.38;5015947;28;44959;-84
2021/12/17 13:59:34;;;;;;;;;17.00;11.75;;;;;9.83;100.00;103183.03;5016824;28;46175;-83
2021/12/17 14:02:26;;;;;;;;;24.00;22.75;;;;;9.83;100.00;103175.94;5018492;28;44715;-84
2021/12/17 14:05:10;;;;;;;;;22.75;22.25;;;;;9.85;100.00;103150.22;5018362;28;44925;-84
2021/12/17 14:07:37;;;;;;;;;27.25;25.50;;;;;9.89;100.00;103154.53;5013329;28;44910;-84
2021/12/17 14:10:06;;;;;;;;;28.00;25.00;;;;;9.93;100.00;103164.19;5020036;28;45057;-84
2021/12/17 14:12:37;;;;;;;;;31.75;26.00;;;;;9.96;100.00;103155.25;5019271;28;45743;-84
2021/12/17 14:15:11;;;;;;;;;27.00;24.25;;;;;10.01;100.00;103158.69;5018543;28;45399;-83
2021/12/17 14:17:39;;;;;;;;;22.50;21.25;;;;;10.09;100.00;103161.13;5016758;28;45425;-83